Tropical Cyclones
[Index]
Main Index Home Page Stock Weather Photos Extreme Storms Discussion Storm News and Storm Chasing Reports Tropical Cyclones / Hurricanes / Typhoons Weather Data and Links Wild Fires / Bushfires Weather Observation Techniques Weather Picture Catalogue Tornado Pictures and Reports Stock Video Footage and DVDs for sale
Season 2015-2016 Tropical Cyclone CORENTIN Track Map
Season 2015-2016 Summaries: [BoM-AU] [JTWC-AU] [JTWC-SIO] [JTWC-SPAC] [JTWC-SH]
<<- Previous TC | JTWC 2015-2016 Season | Next TC ->>

click for intensity scale information  Lat/long Grid: Show Hide

 Date Labels: Show Hide

Joint Typhoon Warning Centre Cyclone Data

Name: CORENTIN

20 Jan 2016 18:00 UTC to 28 Jan 2016 00:00 UTC

    date/time    lat    long     hPa   cat  kts
2016-01-20 18   14.0    76.6     997         30          
2016-01-21 00   14.3    75.8     996         35          
2016-01-21 06   14.9    75.0     993    1    40          
2016-01-21 12   15.7    74.3     993    1    40          
2016-01-21 18   16.6    73.7     989    1    45          
2016-01-22 00   17.6    73.1     982    2    55          
2016-01-22 00   17.6    73.1     982    2    55          
2016-01-22 06   18.8    72.4     978    2    60          
2016-01-22 06   18.8    72.4     978    2    60          
2016-01-22 12   19.8    72.0     974    2    65          
2016-01-22 12   19.8    72.0     974    2    65          
2016-01-22 18   20.7    71.8     970    2    70          
2016-01-22 18   20.7    71.8     970    2    70          
2016-01-23 00   21.6    71.8     967    3    75          
2016-01-23 00   21.6    71.8     967    3    75          
2016-01-23 00   21.6    71.8     967    3    75          
2016-01-23 06   22.8    72.2     963    3    80          
2016-01-23 06   22.8    72.2     963    3    80          
2016-01-23 06   22.8    72.2     963    3    80          
2016-01-23 12   24.0    72.6     967    3    75          
2016-01-23 12   24.0    72.6     967    3    75          
2016-01-23 12   24.0    72.6     967    3    75          
2016-01-23 18   24.7    73.1     978    2    60          
2016-01-23 18   24.7    73.1     978    2    60          
2016-01-24 00   25.5    74.0     982    2    55          
2016-01-24 00   25.5    74.0     982    2    55          
2016-01-24 06   26.3    75.0     985    1    50          
2016-01-24 12   27.0    75.9     985    1    50          
2016-01-24 18   27.4    76.7     985    1    50          
2016-01-25 00   27.5    77.6     985    1    50          
2016-01-25 06   27.4    78.3     985    1    50          
2016-01-25 12   27.1    78.8     985    1    50          
2016-01-25 18   26.7    79.3     989    1    45          
2016-01-26 00   26.4    79.7     989    1    45          
2016-01-26 06   26.4    79.9     989    1    45          
2016-01-26 12   26.9    78.9     989    1    45          
2016-01-26 18   27.2    78.0     989    1    45          
2016-01-27 00   27.7    77.0     993    1    40          
2016-01-27 06   27.7    76.0     996         35          
2016-01-27 12   27.5    76.4    1000         30          
2016-01-27 18   27.9    76.7    1004         25          
2016-01-28 00   28.5    76.3    1004         25          
Winds are 1-min average.

Tropical cyclone tracks developed by Michael Bath using data from the Joint Typhoon Warning Centre Best Tracks and Google Maps.


[Australian Severe Weather index] [Copyright Notice] [Email Contacts] [Search This Site] [Privacy Policy]
Document: tropical_cyclone_corentin.htm Updated: 28 June 2017